sensor_id;sensor_type;location;lat;lon;timestamp;P1;durP1;ratioP1;P2;durP2;ratioP2
60436;SDS011;46289;51.992;4.498;2023-12-22T00:00:09;7.90;;;2.88;;
60436;SDS011;46289;51.992;4.498;2023-12-22T00:02:14;10.30;;;2.38;;
60436;SDS011;46289;51.992;4.498;2023-12-22T00:04:19;7.75;;;2.03;;
60436;SDS011;46289;51.992;4.498;2023-12-22T00:06:24;10.57;;;2.33;;
60436;SDS011;46289;51.992;4.498;2023-12-22T00:08:27;5.22;;;1.85;;
60436;SDS011;46289;51.992;4.498;2023-12-22T00:10:32;27.55;;;4.18;;
60436;SDS011;46289;51.992;4.498;2023-12-22T00:12:37;14.85;;;2.95;;
60436;SDS011;46289;51.992;4.498;2023-12-22T00:14:42;7.50;;;2.40;;
60436;SDS011;46289;51.992;4.498;2023-12-22T00:16:44;12.48;;;2.72;;
60436;SDS011;46289;51.992;4.498;2023-12-22T00:18:49;16.65;;;2.67;;
60436;SDS011;46289;51.992;4.498;2023-12-22T00:20:54;8.55;;;2.13;;
60436;SDS011;46289;51.992;4.498;2023-12-22T00:22:59;12.23;;;3.15;;
60436;SDS011;46289;51.992;4.498;2023-12-22T00:25:04;12.65;;;3.05;;
60436;SDS011;46289;51.992;4.498;2023-12-22T00:27:09;13.32;;;2.15;;
60436;SDS011;46289;51.992;4.498;2023-12-22T00:29:14;15.77;;;3.35;;
60436;SDS011;46289;51.992;4.498;2023-12-22T00:31:22;11.23;;;2.90;;
60436;SDS011;46289;51.992;4.498;2023-12-22T00:33:27;10.15;;;3.40;;
60436;SDS011;46289;51.992;4.498;2023-12-22T00:35:29;10.43;;;2.95;;
60436;SDS011;46289;51.992;4.498;2023-12-22T00:37:40;9.73;;;3.22;;
60436;SDS011;46289;51.992;4.498;2023-12-22T00:39:45;11.35;;;2.65;;
60436;SDS011;46289;51.992;4.498;2023-12-22T00:41:49;6.40;;;2.10;;
60436;SDS011;46289;51.992;4.498;2023-12-22T00:43:53;13.90;;;2.95;;
60436;SDS011;46289;51.992;4.498;2023-12-22T00:45:58;4.55;;;1.95;;
60436;SDS011;46289;51.992;4.498;2023-12-22T00:48:04;8.30;;;2.45;;
60436;SDS011;46289;51.992;4.498;2023-12-22T00:50:07;10.60;;;2.22;;
60436;SDS011;46289;51.992;4.498;2023-12-22T00:52:18;10.27;;;2.20;;
60436;SDS011;46289;51.992;4.498;2023-12-22T00:54:26;7.20;;;1.85;;
60436;SDS011;46289;51.992;4.498;2023-12-22T00:56:33;14.10;;;3.42;;
60436;SDS011;46289;51.992;4.498;2023-12-22T00:58:35;10.85;;;3.38;;
60436;SDS011;46289;51.992;4.498;2023-12-22T01:00:40;10.20;;;2.65;;
60436;SDS011;46289;51.992;4.498;2023-12-22T01:02:42;9.13;;;1.67;;
60436;SDS011;46289;51.992;4.498;2023-12-22T01:04:50;6.55;;;2.53;;
60436;SDS011;46289;51.992;4.498;2023-12-22T01:06:53;8.95;;;2.60;;
60436;SDS011;46289;51.992;4.498;2023-12-22T01:08:58;7.55;;;2.17;;
60436;SDS011;46289;51.992;4.498;2023-12-22T01:11:06;7.47;;;1.58;;
60436;SDS011;46289;51.992;4.498;2023-12-22T01:13:14;13.00;;;2.13;;
60436;SDS011;46289;51.992;4.498;2023-12-22T01:15:19;3.35;;;1.35;;
60436;SDS011;46289;51.992;4.498;2023-12-22T01:17:24;11.90;;;2.45;;
60436;SDS011;46289;51.992;4.498;2023-12-22T01:19:32;9.63;;;2.42;;
60436;SDS011;46289;51.992;4.498;2023-12-22T01:21:37;8.27;;;1.85;;
60436;SDS011;46289;51.992;4.498;2023-12-22T01:23:42;6.43;;;2.05;;
60436;SDS011;46289;51.992;4.498;2023-12-22T01:25:44;10.45;;;2.22;;
60436;SDS011;46289;51.992;4.498;2023-12-22T01:27:52;14.27;;;2.85;;
60436;SDS011;46289;51.992;4.498;2023-12-22T01:29:58;7.35;;;2.42;;
60436;SDS011;46289;51.992;4.498;2023-12-22T01:32:00;8.18;;;2.13;;
60436;SDS011;46289;51.992;4.498;2023-12-22T01:34:06;8.13;;;3.50;;
60436;SDS011;46289;51.992;4.498;2023-12-22T01:36:15;9.18;;;2.08;;
60436;SDS011;46289;51.992;4.498;2023-12-22T01:38:20;6.05;;;1.95;;
60436;SDS011;46289;51.992;4.498;2023-12-22T01:40:26;10.07;;;2.10;;
60436;SDS011;46289;51.992;4.498;2023-12-22T01:42:31;9.02;;;2.35;;
60436;SDS011;46289;51.992;4.498;2023-12-22T01:44:36;13.98;;;2.70;;
60436;SDS011;46289;51.992;4.498;2023-12-22T01:46:41;7.90;;;2.58;;
60436;SDS011;46289;51.992;4.498;2023-12-22T01:48:47;7.90;;;2.72;;
60436;SDS011;46289;51.992;4.498;2023-12-22T01:50:50;4.47;;;1.80;;
60436;SDS011;46289;51.992;4.498;2023-12-22T01:52:56;8.57;;;2.30;;
60436;SDS011;46289;51.992;4.498;2023-12-22T01:55:01;8.70;;;2.08;;
60436;SDS011;46289;51.992;4.498;2023-12-22T01:57:06;10.52;;;2.40;;
60436;SDS011;46289;51.992;4.498;2023-12-22T01:59:12;14.68;;;2.63;;
60436;SDS011;46289;51.992;4.498;2023-12-22T02:01:19;9.90;;;2.47;;
60436;SDS011;46289;51.992;4.498;2023-12-22T02:03:22;12.07;;;2.95;;
60436;SDS011;46289;51.992;4.498;2023-12-22T02:05:28;8.82;;;2.58;;
60436;SDS011;46289;51.992;4.498;2023-12-22T02:07:33;12.65;;;2.85;;
60436;SDS011;46289;51.992;4.498;2023-12-22T02:09:38;7.13;;;1.83;;
60436;SDS011;46289;51.992;4.498;2023-12-22T02:11:43;10.90;;;2.88;;
60436;SDS011;46289;51.992;4.498;2023-12-22T02:13:48;6.13;;;3.50;;
60436;SDS011;46289;51.992;4.498;2023-12-22T02:15:56;10.73;;;2.25;;
60436;SDS011;46289;51.992;4.498;2023-12-22T02:18:10;10.35;;;2.35;;
60436;SDS011;46289;51.992;4.498;2023-12-22T02:20:19;12.52;;;2.33;;
60436;SDS011;46289;51.992;4.498;2023-12-22T02:22:31;18.88;;;3.47;;
60436;SDS011;46289;51.992;4.498;2023-12-22T02:24:39;15.48;;;2.42;;
60436;SDS011;46289;51.992;4.498;2023-12-22T02:26:42;8.55;;;1.77;;
60436;SDS011;46289;51.992;4.498;2023-12-22T02:28:53;4.15;;;2.45;;
60436;SDS011;46289;51.992;4.498;2023-12-22T02:31:02;14.57;;;5.95;;
60436;SDS011;46289;51.992;4.498;2023-12-22T02:33:11;17.50;;;3.03;;
60436;SDS011;46289;51.992;4.498;2023-12-22T02:35:20;8.70;;;2.42;;
60436;SDS011;46289;51.992;4.498;2023-12-22T02:37:33;12.82;;;2.75;;
60436;SDS011;46289;51.992;4.498;2023-12-22T02:39:37;15.32;;;2.90;;
60436;SDS011;46289;51.992;4.498;2023-12-22T02:41:44;6.45;;;1.98;;
60436;SDS011;46289;51.992;4.498;2023-12-22T02:43:51;13.30;;;2.50;;
60436;SDS011;46289;51.992;4.498;2023-12-22T02:45:56;8.02;;;2.78;;
60436;SDS011;46289;51.992;4.498;2023-12-22T02:48:01;11.93;;;3.28;;
60436;SDS011;46289;51.992;4.498;2023-12-22T02:50:06;7.88;;;2.60;;
60436;SDS011;46289;51.992;4.498;2023-12-22T02:52:13;10.32;;;2.00;;
60436;SDS011;46289;51.992;4.498;2023-12-22T02:54:20;8.57;;;1.88;;
60436;SDS011;46289;51.992;4.498;2023-12-22T02:56:31;8.48;;;2.30;;
60436;SDS011;46289;51.992;4.498;2023-12-22T02:58:36;11.75;;;2.67;;
60436;SDS011;46289;51.992;4.498;2023-12-22T03:00:41;9.30;;;2.35;;
60436;SDS011;46289;51.992;4.498;2023-12-22T03:02:51;8.13;;;3.28;;
60436;SDS011;46289;51.992;4.498;2023-12-22T03:04:56;5.20;;;2.13;;
60436;SDS011;46289;51.992;4.498;2023-12-22T03:07:01;9.50;;;2.75;;
60436;SDS011;46289;51.992;4.498;2023-12-22T03:09:06;4.30;;;1.73;;
60436;SDS011;46289;51.992;4.498;2023-12-22T03:11:20;13.95;;;3.17;;
60436;SDS011;46289;51.992;4.498;2023-12-22T03:13:26;11.40;;;2.22;;
60436;SDS011;46289;51.992;4.498;2023-12-22T03:15:31;10.82;;;2.85;;
60436;SDS011;46289;51.992;4.498;2023-12-22T03:17:36;7.38;;;2.22;;
60436;SDS011;46289;51.992;4.498;2023-12-22T03:19:41;7.60;;;2.10;;
60436;SDS011;46289;51.992;4.498;2023-12-22T03:21:50;11.98;;;2.95;;
60436;SDS011;46289;51.992;4.498;2023-12-22T03:23:56;10.57;;;2.10;;
60436;SDS011;46289;51.992;4.498;2023-12-22T03:26:02;13.32;;;2.03;;
60436;SDS011;46289;51.992;4.498;2023-12-22T03:28:10;6.28;;;2.05;;
60436;SDS011;46289;51.992;4.498;2023-12-22T03:30:15;3.08;;;1.55;;
60436;SDS011;46289;51.992;4.498;2023-12-22T03:32:20;12.50;;;2.92;;
60436;SDS011;46289;51.992;4.498;2023-12-22T03:34:25;9.93;;;1.88;;
60436;SDS011;46289;51.992;4.498;2023-12-22T03:36:30;6.28;;;1.95;;
60436;SDS011;46289;51.992;4.498;2023-12-22T03:38:36;8.25;;;1.88;;
60436;SDS011;46289;51.992;4.498;2023-12-22T03:40:41;4.88;;;1.90;;
60436;SDS011;46289;51.992;4.498;2023-12-22T03:42:46;8.75;;;1.90;;
60436;SDS011;46289;51.992;4.498;2023-12-22T03:44:54;5.32;;;1.98;;
60436;SDS011;46289;51.992;4.498;2023-12-22T03:46:59;6.95;;;2.15;;
60436;SDS011;46289;51.992;4.498;2023-12-22T03:49:04;7.68;;;2.67;;
60436;SDS011;46289;51.992;4.498;2023-12-22T03:51:11;6.82;;;1.95;;
60436;SDS011;46289;51.992;4.498;2023-12-22T03:53:15;6.82;;;2.38;;
60436;SDS011;46289;51.992;4.498;2023-12-22T03:55:24;4.43;;;1.83;;
60436;SDS011;46289;51.992;4.498;2023-12-22T03:57:31;5.60;;;1.58;;
60436;SDS011;46289;51.992;4.498;2023-12-22T03:59:36;14.05;;;2.80;;
60436;SDS011;46289;51.992;4.498;2023-12-22T04:01:44;6.13;;;2.45;;
60436;SDS011;46289;51.992;4.498;2023-12-22T04:03:55;5.72;;;2.20;;
60436;SDS011;46289;51.992;4.498;2023-12-22T04:05:57;6.03;;;1.77;;
60436;SDS011;46289;51.992;4.498;2023-12-22T04:08:02;5.40;;;2.03;;
60436;SDS011;46289;51.992;4.498;2023-12-22T04:10:10;11.60;;;2.35;;
60436;SDS011;46289;51.992;4.498;2023-12-22T04:12:16;9.63;;;2.05;;
60436;SDS011;46289;51.992;4.498;2023-12-22T04:14:21;11.73;;;2.92;;
60436;SDS011;46289;51.992;4.498;2023-12-22T04:16:27;9.63;;;2.08;;
60436;SDS011;46289;51.992;4.498;2023-12-22T04:18:37;5.55;;;2.13;;
60436;SDS011;46289;51.992;4.498;2023-12-22T04:20:42;4.43;;;1.65;;
60436;SDS011;46289;51.992;4.498;2023-12-22T04:22:47;10.00;;;2.25;;
60436;SDS011;46289;51.992;4.498;2023-12-22T04:24:53;13.80;;;2.58;;
60436;SDS011;46289;51.992;4.498;2023-12-22T04:29:00;11.77;;;3.03;;
60436;SDS011;46289;51.992;4.498;2023-12-22T04:31:05;14.68;;;2.60;;
60436;SDS011;46289;51.992;4.498;2023-12-22T04:33:10;5.28;;;1.95;;
60436;SDS011;46289;51.992;4.498;2023-12-22T04:35:18;7.20;;;2.33;;
60436;SDS011;46289;51.992;4.498;2023-12-22T04:37:23;8.35;;;2.75;;
60436;SDS011;46289;51.992;4.498;2023-12-22T04:39:28;11.15;;;3.30;;
60436;SDS011;46289;51.992;4.498;2023-12-22T04:41:40;5.82;;;2.35;;
60436;SDS011;46289;51.992;4.498;2023-12-22T04:43:45;8.27;;;2.00;;
60436;SDS011;46289;51.992;4.498;2023-12-22T04:45:50;7.03;;;2.40;;
60436;SDS011;46289;51.992;4.498;2023-12-22T04:47:55;8.07;;;2.20;;
60436;SDS011;46289;51.992;4.498;2023-12-22T04:50:01;10.85;;;2.55;;
60436;SDS011;46289;51.992;4.498;2023-12-22T04:52:09;12.40;;;2.30;;
60436;SDS011;46289;51.992;4.498;2023-12-22T04:54:15;8.07;;;2.42;;
60436;SDS011;46289;51.992;4.498;2023-12-22T04:56:24;1.73;;;1.55;;
60436;SDS011;46289;51.992;4.498;2023-12-22T04:58:29;10.63;;;2.20;;
60436;SDS011;46289;51.992;4.498;2023-12-22T05:00:36;7.55;;;2.05;;
60436;SDS011;46289;51.992;4.498;2023-12-22T05:02:41;13.90;;;2.58;;
60436;SDS011;46289;51.992;4.498;2023-12-22T05:04:47;10.80;;;2.15;;
60436;SDS011;46289;51.992;4.498;2023-12-22T05:06:49;14.85;;;4.32;;
60436;SDS011;46289;51.992;4.498;2023-12-22T05:08:57;13.48;;;3.22;;
60436;SDS011;46289;51.992;4.498;2023-12-22T05:11:02;11.73;;;2.17;;
60436;SDS011;46289;51.992;4.498;2023-12-22T05:13:07;10.05;;;3.10;;
60436;SDS011;46289;51.992;4.498;2023-12-22T05:15:12;9.65;;;2.25;;
60436;SDS011;46289;51.992;4.498;2023-12-22T05:17:17;12.73;;;2.88;;
60436;SDS011;46289;51.992;4.498;2023-12-22T05:19:23;10.70;;;3.00;;
60436;SDS011;46289;51.992;4.498;2023-12-22T05:21:28;8.43;;;2.70;;
60436;SDS011;46289;51.992;4.498;2023-12-22T05:23:33;15.73;;;2.80;;
60436;SDS011;46289;51.992;4.498;2023-12-22T05:25:38;14.60;;;2.90;;
60436;SDS011;46289;51.992;4.498;2023-12-22T05:27:43;19.70;;;3.88;;
60436;SDS011;46289;51.992;4.498;2023-12-22T05:29:51;12.10;;;3.17;;
60436;SDS011;46289;51.992;4.498;2023-12-22T05:31:56;11.13;;;3.42;;
60436;SDS011;46289;51.992;4.498;2023-12-22T05:34:01;18.90;;;3.97;;
60436;SDS011;46289;51.992;4.498;2023-12-22T05:36:08;16.00;;;2.92;;
60436;SDS011;46289;51.992;4.498;2023-12-22T05:38:13;13.38;;;2.75;;
60436;SDS011;46289;51.992;4.498;2023-12-22T05:40:18;16.45;;;3.15;;
60436;SDS011;46289;51.992;4.498;2023-12-22T05:42:26;12.20;;;3.30;;
60436;SDS011;46289;51.992;4.498;2023-12-22T05:44:31;15.98;;;3.55;;
60436;SDS011;46289;51.992;4.498;2023-12-22T05:46:36;19.08;;;4.38;;
60436;SDS011;46289;51.992;4.498;2023-12-22T05:48:39;16.83;;;3.92;;
60436;SDS011;46289;51.992;4.498;2023-12-22T05:50:44;28.13;;;5.00;;
60436;SDS011;46289;51.992;4.498;2023-12-22T05:52:50;18.70;;;3.30;;
60436;SDS011;46289;51.992;4.498;2023-12-22T05:54:56;16.05;;;4.75;;
60436;SDS011;46289;51.992;4.498;2023-12-22T05:57:01;16.63;;;4.68;;
60436;SDS011;46289;51.992;4.498;2023-12-22T05:59:12;17.00;;;4.50;;
60436;SDS011;46289;51.992;4.498;2023-12-22T06:01:17;15.88;;;4.82;;
60436;SDS011;46289;51.992;4.498;2023-12-22T06:03:23;21.98;;;4.32;;
60436;SDS011;46289;51.992;4.498;2023-12-22T06:05:31;14.80;;;5.05;;
60436;SDS011;46289;51.992;4.498;2023-12-22T06:07:38;15.48;;;4.68;;
60436;SDS011;46289;51.992;4.498;2023-12-22T06:09:40;19.55;;;4.70;;
60436;SDS011;46289;51.992;4.498;2023-12-22T06:11:45;15.80;;;4.32;;
60436;SDS011;46289;51.992;4.498;2023-12-22T06:13:47;21.15;;;5.22;;
60436;SDS011;46289;51.992;4.498;2023-12-22T06:15:57;20.55;;;4.60;;
60436;SDS011;46289;51.992;4.498;2023-12-22T06:18:02;14.52;;;3.22;;
60436;SDS011;46289;51.992;4.498;2023-12-22T06:20:09;15.27;;;3.15;;
60436;SDS011;46289;51.992;4.498;2023-12-22T06:22:15;16.77;;;3.95;;
60436;SDS011;46289;51.992;4.498;2023-12-22T06:24:20;17.98;;;4.10;;
60436;SDS011;46289;51.992;4.498;2023-12-22T06:26:25;20.00;;;4.60;;
60436;SDS011;46289;51.992;4.498;2023-12-22T06:28:30;27.67;;;3.85;;
60436;SDS011;46289;51.992;4.498;2023-12-22T06:30:37;14.55;;;4.18;;
60436;SDS011;46289;51.992;4.498;2023-12-22T06:32:47;14.13;;;4.70;;
60436;SDS011;46289;51.992;4.498;2023-12-22T06:34:52;15.55;;;3.58;;
60436;SDS011;46289;51.992;4.498;2023-12-22T06:36:57;21.35;;;3.75;;
60436;SDS011;46289;51.992;4.498;2023-12-22T06:39:02;18.13;;;4.55;;
60436;SDS011;46289;51.992;4.498;2023-12-22T06:41:07;14.07;;;4.30;;
60436;SDS011;46289;51.992;4.498;2023-12-22T06:43:29;19.77;;;5.47;;
60436;SDS011;46289;51.992;4.498;2023-12-22T06:45:35;17.50;;;3.60;;
60436;SDS011;46289;51.992;4.498;2023-12-22T06:47:41;16.05;;;3.58;;
60436;SDS011;46289;51.992;4.498;2023-12-22T06:49:51;14.68;;;3.70;;
60436;SDS011;46289;51.992;4.498;2023-12-22T06:51:56;22.63;;;4.78;;
60436;SDS011;46289;51.992;4.498;2023-12-22T06:53:59;25.40;;;3.88;;
60436;SDS011;46289;51.992;4.498;2023-12-22T06:56:05;10.57;;;3.28;;
60436;SDS011;46289;51.992;4.498;2023-12-22T06:58:20;17.38;;;3.55;;
60436;SDS011;46289;51.992;4.498;2023-12-22T07:00:29;9.68;;;2.88;;
60436;SDS011;46289;51.992;4.498;2023-12-22T07:02:34;14.82;;;3.53;;
60436;SDS011;46289;51.992;4.498;2023-12-22T07:07:29;14.20;;;3.72;;
60436;SDS011;46289;51.992;4.498;2023-12-22T07:09:36;12.88;;;3.08;;
60436;SDS011;46289;51.992;4.498;2023-12-22T07:11:42;18.55;;;4.97;;
60436;SDS011;46289;51.992;4.498;2023-12-22T07:13:48;24.10;;;3.67;;
60436;SDS011;46289;51.992;4.498;2023-12-22T07:15:53;11.73;;;2.95;;
60436;SDS011;46289;51.992;4.498;2023-12-22T07:17:58;13.48;;;3.63;;
60436;SDS011;46289;51.992;4.498;2023-12-22T07:20:06;18.55;;;4.55;;
60436;SDS011;46289;51.992;4.498;2023-12-22T07:22:16;14.52;;;4.00;;
60436;SDS011;46289;51.992;4.498;2023-12-22T07:24:21;21.52;;;4.15;;
60436;SDS011;46289;51.992;4.498;2023-12-22T07:26:26;13.32;;;3.55;;
60436;SDS011;46289;51.992;4.498;2023-12-22T07:28:31;12.80;;;3.10;;
60436;SDS011;46289;51.992;4.498;2023-12-22T07:30:36;18.58;;;4.10;;
60436;SDS011;46289;51.992;4.498;2023-12-22T07:32:43;18.88;;;3.78;;
60436;SDS011;46289;51.992;4.498;2023-12-22T07:34:50;10.70;;;3.65;;
60436;SDS011;46289;51.992;4.498;2023-12-22T07:37:01;11.60;;;3.58;;
60436;SDS011;46289;51.992;4.498;2023-12-22T07:39:10;8.77;;;3.17;;
60436;SDS011;46289;51.992;4.498;2023-12-22T07:41:21;18.98;;;3.63;;
60436;SDS011;46289;51.992;4.498;2023-12-22T07:43:28;10.25;;;2.45;;
60436;SDS011;46289;51.992;4.498;2023-12-22T07:45:38;17.38;;;3.58;;
60436;SDS011;46289;51.992;4.498;2023-12-22T07:47:57;9.00;;;2.55;;
60436;SDS011;46289;51.992;4.498;2023-12-22T07:50:01;9.00;;;3.05;;
60436;SDS011;46289;51.992;4.498;2023-12-22T07:52:12;11.93;;;3.38;;
60436;SDS011;46289;51.992;4.498;2023-12-22T07:54:18;9.07;;;2.90;;
60436;SDS011;46289;51.992;4.498;2023-12-22T07:56:28;7.43;;;2.50;;
60436;SDS011;46289;51.992;4.498;2023-12-22T07:58:33;11.73;;;5.15;;
60436;SDS011;46289;51.992;4.498;2023-12-22T08:00:38;10.15;;;2.55;;
60436;SDS011;46289;51.992;4.498;2023-12-22T08:02:46;10.73;;;2.58;;
60436;SDS011;46289;51.992;4.498;2023-12-22T08:04:57;11.82;;;2.83;;
60436;SDS011;46289;51.992;4.498;2023-12-22T08:07:03;7.72;;;2.38;;
60436;SDS011;46289;51.992;4.498;2023-12-22T08:09:08;12.60;;;3.00;;
60436;SDS011;46289;51.992;4.498;2023-12-22T08:11:15;15.40;;;2.78;;
60436;SDS011;46289;51.992;4.498;2023-12-22T08:13:21;8.18;;;2.35;;
60436;SDS011;46289;51.992;4.498;2023-12-22T08:15:26;10.82;;;2.67;;
60436;SDS011;46289;51.992;4.498;2023-12-22T08:17:37;11.93;;;2.67;;
60436;SDS011;46289;51.992;4.498;2023-12-22T08:19:50;9.93;;;2.28;;
60436;SDS011;46289;51.992;4.498;2023-12-22T08:22:06;12.18;;;2.53;;
60436;SDS011;46289;51.992;4.498;2023-12-22T08:24:14;30.02;;;3.80;;
60436;SDS011;46289;51.992;4.498;2023-12-22T08:26:25;10.57;;;2.67;;
60436;SDS011;46289;51.992;4.498;2023-12-22T08:28:32;9.70;;;2.15;;
60436;SDS011;46289;51.992;4.498;2023-12-22T08:30:37;4.13;;;1.92;;
60436;SDS011;46289;51.992;4.498;2023-12-22T08:32:40;10.82;;;2.15;;
60436;SDS011;46289;51.992;4.498;2023-12-22T08:34:45;5.10;;;1.73;;
60436;SDS011;46289;51.992;4.498;2023-12-22T08:38:53;6.68;;;2.30;;
60436;SDS011;46289;51.992;4.498;2023-12-22T08:41:01;6.88;;;2.10;;
60436;SDS011;46289;51.992;4.498;2023-12-22T08:43:10;9.40;;;2.72;;
60436;SDS011;46289;51.992;4.498;2023-12-22T08:45:14;9.98;;;2.70;;
60436;SDS011;46289;51.992;4.498;2023-12-22T08:47:19;9.75;;;2.53;;
60436;SDS011;46289;51.992;4.498;2023-12-22T08:49:24;6.93;;;1.83;;
60436;SDS011;46289;51.992;4.498;2023-12-22T08:51:30;7.43;;;2.20;;
60436;SDS011;46289;51.992;4.498;2023-12-22T08:53:32;5.20;;;1.80;;
60436;SDS011;46289;51.992;4.498;2023-12-22T08:55:38;4.97;;;1.30;;
60436;SDS011;46289;51.992;4.498;2023-12-22T08:57:46;6.35;;;2.00;;
60436;SDS011;46289;51.992;4.498;2023-12-22T09:00:03;12.93;;;2.38;;
60436;SDS011;46289;51.992;4.498;2023-12-22T09:02:09;6.88;;;2.33;;
60436;SDS011;46289;51.992;4.498;2023-12-22T09:04:14;5.40;;;2.33;;
60436;SDS011;46289;51.992;4.498;2023-12-22T09:06:24;6.20;;;2.08;;
60436;SDS011;46289;51.992;4.498;2023-12-22T09:08:28;9.45;;;1.90;;
60436;SDS011;46289;51.992;4.498;2023-12-22T09:10:33;10.18;;;2.63;;
60436;SDS011;46289;51.992;4.498;2023-12-22T09:12:38;13.65;;;2.47;;
60436;SDS011;46289;51.992;4.498;2023-12-22T09:14:42;7.68;;;2.38;;
60436;SDS011;46289;51.992;4.498;2023-12-22T09:16:47;6.40;;;2.22;;
60436;SDS011;46289;51.992;4.498;2023-12-22T09:18:53;7.22;;;1.90;;
60436;SDS011;46289;51.992;4.498;2023-12-22T09:20:58;7.63;;;2.63;;
60436;SDS011;46289;51.992;4.498;2023-12-22T09:23:00;4.88;;;1.73;;
60436;SDS011;46289;51.992;4.498;2023-12-22T09:25:08;6.82;;;1.77;;
60436;SDS011;46289;51.992;4.498;2023-12-22T09:27:13;8.48;;;2.22;;
60436;SDS011;46289;51.992;4.498;2023-12-22T09:29:18;5.90;;;2.22;;
60436;SDS011;46289;51.992;4.498;2023-12-22T09:31:26;4.75;;;1.60;;
60436;SDS011;46289;51.992;4.498;2023-12-22T09:33:34;7.13;;;2.00;;
60436;SDS011;46289;51.992;4.498;2023-12-22T09:35:41;7.18;;;2.15;;
60436;SDS011;46289;51.992;4.498;2023-12-22T09:37:46;10.98;;;2.25;;
60436;SDS011;46289;51.992;4.498;2023-12-22T09:39:52;6.82;;;1.85;;
60436;SDS011;46289;51.992;4.498;2023-12-22T09:41:57;4.10;;;1.73;;
60436;SDS011;46289;51.992;4.498;2023-12-22T09:44:03;4.43;;;1.67;;
60436;SDS011;46289;51.992;4.498;2023-12-22T09:46:10;10.02;;;2.47;;
60436;SDS011;46289;51.992;4.498;2023-12-22T09:48:19;4.15;;;1.92;;
60436;SDS011;46289;51.992;4.498;2023-12-22T09:50:32;6.35;;;1.83;;
60436;SDS011;46289;51.992;4.498;2023-12-22T09:52:38;9.43;;;2.10;;
60436;SDS011;46289;51.992;4.498;2023-12-22T09:54:45;4.57;;;1.92;;
60436;SDS011;46289;51.992;4.498;2023-12-22T09:56:49;5.82;;;1.88;;
60436;SDS011;46289;51.992;4.498;2023-12-22T09:58:55;9.18;;;2.28;;
60436;SDS011;46289;51.992;4.498;2023-12-22T10:01:01;5.65;;;2.38;;
60436;SDS011;46289;51.992;4.498;2023-12-22T10:03:11;11.63;;;2.20;;
60436;SDS011;46289;51.992;4.498;2023-12-22T10:05:19;7.20;;;1.80;;
60436;SDS011;46289;51.992;4.498;2023-12-22T10:07:25;8.00;;;2.53;;
60436;SDS011;46289;51.992;4.498;2023-12-22T10:09:31;17.02;;;3.15;;
60436;SDS011;46289;51.992;4.498;2023-12-22T10:11:37;5.72;;;2.00;;
60436;SDS011;46289;51.992;4.498;2023-12-22T10:13:43;10.10;;;2.03;;
60436;SDS011;46289;51.992;4.498;2023-12-22T10:15:51;6.22;;;1.77;;
60436;SDS011;46289;51.992;4.498;2023-12-22T10:17:57;3.17;;;1.92;;
60436;SDS011;46289;51.992;4.498;2023-12-22T10:20:02;8.98;;;2.70;;
60436;SDS011;46289;51.992;4.498;2023-12-22T10:22:11;7.00;;;1.98;;
60436;SDS011;46289;51.992;4.498;2023-12-22T10:26:44;2.88;;;1.80;;
60436;SDS011;46289;51.992;4.498;2023-12-22T10:28:50;16.27;;;2.70;;
60436;SDS011;46289;51.992;4.498;2023-12-22T10:30:56;6.03;;;2.28;;
60436;SDS011;46289;51.992;4.498;2023-12-22T10:33:07;6.60;;;2.20;;
60436;SDS011;46289;51.992;4.498;2023-12-22T10:35:12;9.05;;;2.80;;
60436;SDS011;46289;51.992;4.498;2023-12-22T10:37:20;7.18;;;1.90;;
60436;SDS011;46289;51.992;4.498;2023-12-22T10:39:30;3.95;;;1.92;;
60436;SDS011;46289;51.992;4.498;2023-12-22T10:41:40;6.15;;;2.58;;
60436;SDS011;46289;51.992;4.498;2023-12-22T10:43:42;5.72;;;1.95;;
60436;SDS011;46289;51.992;4.498;2023-12-22T10:45:48;2.97;;;1.98;;
60436;SDS011;46289;51.992;4.498;2023-12-22T10:47:53;13.30;;;2.22;;
60436;SDS011;46289;51.992;4.498;2023-12-22T10:50:01;8.65;;;3.05;;
60436;SDS011;46289;51.992;4.498;2023-12-22T10:52:08;3.47;;;1.73;;
60436;SDS011;46289;51.992;4.498;2023-12-22T10:54:22;10.48;;;2.17;;
60436;SDS011;46289;51.992;4.498;2023-12-22T10:56:37;5.50;;;2.33;;
60436;SDS011;46289;51.992;4.498;2023-12-22T10:58:43;7.05;;;1.80;;
60436;SDS011;46289;51.992;4.498;2023-12-22T11:00:51;12.32;;;2.42;;
60436;SDS011;46289;51.992;4.498;2023-12-22T11:02:58;4.68;;;2.35;;
60436;SDS011;46289;51.992;4.498;2023-12-22T11:05:10;7.25;;;2.33;;
60436;SDS011;46289;51.992;4.498;2023-12-22T11:07:19;11.02;;;2.80;;
60436;SDS011;46289;51.992;4.498;2023-12-22T11:09:31;9.27;;;2.40;;
60436;SDS011;46289;51.992;4.498;2023-12-22T11:11:39;7.97;;;2.30;;
60436;SDS011;46289;51.992;4.498;2023-12-22T11:13:46;12.95;;;2.20;;
60436;SDS011;46289;51.992;4.498;2023-12-22T11:15:52;9.77;;;2.15;;
60436;SDS011;46289;51.992;4.498;2023-12-22T11:17:59;7.45;;;2.58;;
60436;SDS011;46289;51.992;4.498;2023-12-22T11:20:06;5.53;;;2.28;;
60436;SDS011;46289;51.992;4.498;2023-12-22T11:22:11;9.32;;;2.58;;
60436;SDS011;46289;51.992;4.498;2023-12-22T11:24:19;9.50;;;2.20;;
60436;SDS011;46289;51.992;4.498;2023-12-22T11:26:28;6.60;;;2.15;;
60436;SDS011;46289;51.992;4.498;2023-12-22T11:28:37;15.23;;;3.80;;
60436;SDS011;46289;51.992;4.498;2023-12-22T11:30:46;4.22;;;2.35;;
60436;SDS011;46289;51.992;4.498;2023-12-22T11:32:58;9.18;;;2.50;;
60436;SDS011;46289;51.992;4.498;2023-12-22T11:35:06;2.70;;;2.05;;
60436;SDS011;46289;51.992;4.498;2023-12-22T11:37:13;5.30;;;1.95;;
60436;SDS011;46289;51.992;4.498;2023-12-22T11:39:20;9.88;;;2.40;;
60436;SDS011;46289;51.992;4.498;2023-12-22T11:41:30;13.52;;;2.78;;
60436;SDS011;46289;51.992;4.498;2023-12-22T11:43:37;10.02;;;2.88;;
60436;SDS011;46289;51.992;4.498;2023-12-22T11:45:43;8.60;;;1.98;;
60436;SDS011;46289;51.992;4.498;2023-12-22T11:47:51;8.48;;;1.92;;
60436;SDS011;46289;51.992;4.498;2023-12-22T11:49:56;8.60;;;2.10;;
60436;SDS011;46289;51.992;4.498;2023-12-22T11:52:13;8.15;;;2.17;;
60436;SDS011;46289;51.992;4.498;2023-12-22T11:56:51;7.15;;;2.90;;
60436;SDS011;46289;51.992;4.498;2023-12-22T11:58:56;10.55;;;2.38;;
60436;SDS011;46289;51.992;4.498;2023-12-22T12:01:05;7.45;;;1.60;;
60436;SDS011;46289;51.992;4.498;2023-12-22T12:03:09;7.13;;;1.58;;
60436;SDS011;46289;51.992;4.498;2023-12-22T12:05:19;11.27;;;2.00;;
60436;SDS011;46289;51.992;4.498;2023-12-22T12:09:47;8.30;;;2.67;;
60436;SDS011;46289;51.992;4.498;2023-12-22T12:14:21;8.68;;;2.13;;
60436;SDS011;46289;51.992;4.498;2023-12-22T12:16:27;2.72;;;1.38;;
60436;SDS011;46289;51.992;4.498;2023-12-22T12:18:33;6.80;;;1.80;;
60436;SDS011;46289;51.992;4.498;2023-12-22T12:20:36;10.52;;;1.90;;
60436;SDS011;46289;51.992;4.498;2023-12-22T12:22:42;8.23;;;2.03;;
60436;SDS011;46289;51.992;4.498;2023-12-22T12:24:50;9.57;;;2.35;;
60436;SDS011;46289;51.992;4.498;2023-12-22T12:26:52;6.35;;;1.83;;
60436;SDS011;46289;51.992;4.498;2023-12-22T12:29:00;5.38;;;1.52;;
60436;SDS011;46289;51.992;4.498;2023-12-22T12:31:08;7.88;;;2.00;;
60436;SDS011;46289;51.992;4.498;2023-12-22T12:33:14;10.00;;;1.90;;
60436;SDS011;46289;51.992;4.498;2023-12-22T12:35:22;12.95;;;3.22;;
60436;SDS011;46289;51.992;4.498;2023-12-22T12:37:31;8.32;;;2.13;;
60436;SDS011;46289;51.992;4.498;2023-12-22T12:39:37;8.82;;;1.83;;
60436;SDS011;46289;51.992;4.498;2023-12-22T12:41:45;11.07;;;2.53;;
60436;SDS011;46289;51.992;4.498;2023-12-22T12:44:01;12.43;;;2.38;;
60436;SDS011;46289;51.992;4.498;2023-12-22T12:46:08;8.98;;;2.05;;
60436;SDS011;46289;51.992;4.498;2023-12-22T12:48:13;9.13;;;2.38;;
60436;SDS011;46289;51.992;4.498;2023-12-22T12:50:24;16.63;;;3.25;;
60436;SDS011;46289;51.992;4.498;2023-12-22T12:52:30;12.50;;;3.03;;